createdAt,value
2023-03-17T00:01:39.670Z,1.95
2023-03-17T00:04:09.413Z,1.95
2023-03-17T00:06:37.053Z,1.92
2023-03-17T00:09:04.085Z,1.85
2023-03-17T00:11:30.708Z,1.89
2023-03-17T00:13:57.635Z,1.93
2023-03-17T00:16:27.133Z,1.88
2023-03-17T00:18:54.919Z,1.88
2023-03-17T00:21:29.640Z,1.90
2023-03-17T00:23:56.751Z,1.82
2023-03-17T00:26:24.248Z,1.82
2023-03-17T00:28:51.451Z,1.83
2023-03-17T00:31:23.708Z,1.79
2023-03-17T00:33:55.073Z,1.74
2023-03-17T00:36:24.126Z,1.72
2023-03-17T00:38:52.673Z,1.68
2023-03-17T00:41:19.769Z,1.65
2023-03-17T00:43:46.565Z,1.60
2023-03-17T00:46:27.635Z,1.62
2023-03-17T00:48:55.195Z,1.61
2023-03-17T00:51:22.061Z,1.59
2023-03-17T00:53:48.950Z,1.55
2023-03-17T00:56:18.294Z,1.58
2023-03-17T00:58:46.140Z,1.56
2023-03-17T01:01:12.657Z,1.46
2023-03-17T01:03:39.525Z,1.44
2023-03-17T01:06:11.011Z,1.42
2023-03-17T01:08:39.801Z,1.46
2023-03-17T01:11:06.775Z,1.35
2023-03-17T01:13:34.316Z,1.37
2023-03-17T01:16:01.360Z,1.40
2023-03-17T01:18:27.983Z,1.28
2023-03-17T01:20:54.858Z,1.35
2023-03-17T01:23:22.199Z,1.31
2023-03-17T01:25:49.196Z,1.30
2023-03-17T01:28:18.635Z,1.25
2023-03-17T01:30:45.346Z,1.30
2023-03-17T01:33:13.657Z,1.29
2023-03-17T01:35:41.583Z,1.22
2023-03-17T01:38:08.765Z,1.30
2023-03-17T01:40:42.532Z,1.24
2023-03-17T01:43:08.945Z,1.28
2023-03-17T01:46:09.913Z,1.22
2023-03-17T01:48:44.612Z,1.24
2023-03-17T01:51:22.514Z,1.22
2023-03-17T01:53:51.176Z,1.14
2023-03-17T01:56:18.891Z,1.18
2023-03-17T01:58:48.362Z,1.14
2023-03-17T02:01:15.233Z,1.03
2023-03-17T02:03:42.611Z,1.10
2023-03-17T02:06:09.992Z,1.10
2023-03-17T02:08:36.495Z,1.13
2023-03-17T02:11:05.184Z,1.07
2023-03-17T02:13:33.228Z,1.07
2023-03-17T02:15:59.738Z,1.07
2023-03-17T02:18:26.467Z,1.03
2023-03-17T02:21:29.747Z,1.00
2023-03-17T02:23:56.813Z,0.89
2023-03-17T02:26:26.237Z,0.85
2023-03-17T02:28:53.772Z,0.79
2023-03-17T02:31:21.143Z,0.78
2023-03-17T02:33:47.664Z,0.77
2023-03-17T02:36:14.765Z,0.71
2023-03-17T02:38:41.281Z,0.74
2023-03-17T02:41:09.808Z,0.63
2023-03-17T02:43:36.637Z,0.68
2023-03-17T02:46:03.941Z,0.66
2023-03-17T02:48:30.657Z,0.74
2023-03-17T02:50:57.165Z,0.74
2023-03-17T02:53:23.809Z,0.73
2023-03-17T02:55:50.493Z,0.70
2023-03-17T02:58:16.957Z,0.74
2023-03-17T03:00:43.416Z,0.72
2023-03-17T03:03:10.288Z,0.74
2023-03-17T03:05:36.785Z,0.72
2023-03-17T03:08:03.490Z,0.79
2023-03-17T03:10:30.157Z,0.78
2023-03-17T03:12:56.795Z,0.70
2023-03-17T03:15:23.235Z,0.75
2023-03-17T03:17:51.064Z,0.77
2023-03-17T03:20:18.443Z,0.81
2023-03-17T03:22:44.922Z,0.77
2023-03-17T03:25:11.384Z,0.74
2023-03-17T03:27:37.986Z,0.76
2023-03-17T03:30:07.490Z,0.78
2023-03-17T03:32:34.551Z,0.80
2023-03-17T03:35:01.522Z,0.76
2023-03-17T03:37:28.179Z,0.86
2023-03-17T03:39:54.663Z,0.82
2023-03-17T03:42:21.239Z,0.72
2023-03-17T03:44:47.783Z,0.76
2023-03-17T03:47:14.234Z,0.78
2023-03-17T03:49:41.231Z,0.75
2023-03-17T03:52:07.862Z,0.78
2023-03-17T03:54:34.670Z,0.80
2023-03-17T03:57:01.373Z,0.83
2023-03-17T03:59:27.910Z,0.85
2023-03-17T04:01:54.376Z,0.93
2023-03-17T04:04:21.720Z,0.91
2023-03-17T04:06:48.506Z,0.95
2023-03-17T04:09:15.292Z,0.98
2023-03-17T04:11:41.786Z,0.93
2023-03-17T04:14:08.637Z,0.92
2023-03-17T04:16:35.201Z,0.88
2023-03-17T04:19:01.808Z,0.83
2023-03-17T04:21:28.351Z,0.84
2023-03-17T04:23:54.852Z,0.84
2023-03-17T04:26:23.137Z,0.85
2023-03-17T04:28:49.814Z,0.90
2023-03-17T04:31:16.538Z,0.92
2023-03-17T04:33:43.191Z,0.93
2023-03-17T04:36:17.422Z,0.94
2023-03-17T04:38:43.934Z,0.93
2023-03-17T04:41:10.390Z,0.96
2023-03-17T04:43:37.053Z,0.91
2023-03-17T04:46:03.571Z,0.88
2023-03-17T04:48:30.128Z,0.91
2023-03-17T04:50:56.657Z,0.89
2023-03-17T04:53:23.293Z,0.88
2023-03-17T04:55:49.851Z,0.91
2023-03-17T04:58:29.900Z,0.87
2023-03-17T05:00:57.758Z,0.88
2023-03-17T05:03:27.611Z,0.83
2023-03-17T05:05:54.785Z,0.85
2023-03-17T05:08:21.512Z,0.86
2023-03-17T05:10:47.996Z,0.81
2023-03-17T05:13:14.573Z,0.85
2023-03-17T05:15:41.385Z,0.90
2023-03-17T05:18:08.328Z,0.91
2023-03-17T05:20:37.785Z,0.89
2023-03-17T05:23:04.352Z,0.95
2023-03-17T05:25:30.867Z,0.94
2023-03-17T05:27:58.684Z,0.95
2023-03-17T05:30:28.311Z,0.93
2023-03-17T05:32:55.203Z,0.98
2023-03-17T05:35:22.785Z,0.98
2023-03-17T05:37:49.491Z,0.92
2023-03-17T05:40:16.253Z,1.01
2023-03-17T05:42:42.725Z,1.02
2023-03-17T05:45:10.057Z,1.05
2023-03-17T05:47:36.580Z,1.10
2023-03-17T05:50:04.852Z,1.04
2023-03-17T05:52:31.739Z,1.08
2023-03-17T05:54:58.258Z,1.14
2023-03-17T05:57:25.097Z,1.21
2023-03-17T05:59:51.597Z,1.17
2023-03-17T06:02:18.311Z,1.10
2023-03-17T06:04:44.900Z,1.20
2023-03-17T06:07:12.117Z,1.13
2023-03-17T06:09:38.898Z,1.09
2023-03-17T06:12:06.785Z,1.15
2023-03-17T06:14:33.523Z,1.19
2023-03-17T06:17:00.222Z,1.18
2023-03-17T06:19:26.920Z,1.31
2023-03-17T06:21:53.423Z,1.46
2023-03-17T06:24:20.145Z,1.45
2023-03-17T06:26:48.187Z,1.51
2023-03-17T06:29:14.714Z,1.60
2023-03-17T06:31:42.223Z,1.66
2023-03-17T06:34:08.712Z,1.57
2023-03-17T06:36:36.969Z,1.74
2023-03-17T06:39:05.229Z,1.78
2023-03-17T06:41:31.905Z,1.87
2023-03-17T06:43:58.445Z,1.83
2023-03-17T06:46:24.968Z,1.89
2023-03-17T06:48:51.464Z,1.95
2023-03-17T06:51:18.171Z,2.13
2023-03-17T06:53:44.646Z,2.21
2023-03-17T06:56:23.654Z,2.19
2023-03-17T06:58:55.537Z,2.38
2023-03-17T07:01:22.444Z,2.32
2023-03-17T07:03:49.188Z,2.51
2023-03-17T07:06:15.670Z,2.55
2023-03-17T07:08:42.282Z,2.57
2023-03-17T07:11:09.469Z,2.72
2023-03-17T07:13:37.357Z,2.74
2023-03-17T07:16:03.997Z,2.87
2023-03-17T07:18:32.360Z,3.00
2023-03-17T07:20:58.997Z,3.21
2023-03-17T07:23:27.262Z,3.38
2023-03-17T07:25:55.828Z,3.33
2023-03-17T07:28:22.881Z,3.54
2023-03-17T07:30:51.060Z,3.58
2023-03-17T07:33:21.312Z,3.64
2023-03-17T07:35:49.055Z,3.71
2023-03-17T07:38:17.407Z,3.96
2023-03-17T07:40:47.870Z,4.11
2023-03-17T07:43:17.989Z,3.90
2023-03-17T07:45:45.250Z,3.84
2023-03-17T07:48:12.233Z,3.68
2023-03-17T07:50:39.049Z,3.77
2023-03-17T07:53:07.196Z,4.06
2023-03-17T07:55:33.778Z,4.09
2023-03-17T07:58:00.325Z,4.36
2023-03-17T08:00:29.146Z,4.62
2023-03-17T08:03:09.431Z,4.60
2023-03-17T08:05:37.037Z,4.57
2023-03-17T08:08:05.407Z,4.89
2023-03-17T08:10:32.652Z,4.90
2023-03-17T08:12:59.387Z,4.89
2023-03-17T08:15:25.880Z,5.14
2023-03-17T08:17:52.316Z,5.57
2023-03-17T08:20:19.266Z,5.54
2023-03-17T08:22:45.910Z,5.72
2023-03-17T08:25:12.738Z,5.82
2023-03-17T08:27:39.379Z,5.76
2023-03-17T08:30:06.511Z,5.85
2023-03-17T08:32:33.406Z,5.77
2023-03-17T08:35:00.493Z,6.15
2023-03-17T08:37:27.864Z,6.20
2023-03-17T08:39:54.748Z,6.54
2023-03-17T08:42:21.816Z,6.46
2023-03-17T08:44:48.275Z,6.45
2023-03-17T08:47:15.450Z,6.91
2023-03-17T08:49:42.512Z,6.92
2023-03-17T08:52:11.787Z,6.89
2023-03-17T08:54:38.382Z,7.04
2023-03-17T08:57:04.978Z,7.44
2023-03-17T08:59:31.656Z,7.15
2023-03-17T09:01:58.303Z,7.03
2023-03-17T09:04:26.156Z,7.43
2023-03-17T09:07:03.436Z,7.00
2023-03-17T09:09:31.410Z,7.51
2023-03-17T09:11:57.892Z,7.29
2023-03-17T09:14:25.010Z,7.44
2023-03-17T09:16:52.360Z,7.84
2023-03-17T09:19:19.326Z,7.43
2023-03-17T09:21:46.163Z,7.69
2023-03-17T09:24:13.690Z,7.58
2023-03-17T09:26:40.151Z,7.59
2023-03-17T09:29:07.475Z,7.49
2023-03-17T09:31:36.508Z,7.79
2023-03-17T09:34:05.175Z,8.11
2023-03-17T09:36:33.227Z,7.89
2023-03-17T09:39:00.410Z,7.76
2023-03-17T09:41:57.090Z,8.20
2023-03-17T09:44:56.550Z,8.18
2023-03-17T09:47:53.787Z,7.89
2023-03-17T09:50:39.103Z,8.24
2023-03-17T09:53:12.765Z,8.44
2023-03-17T09:55:39.274Z,8.96
2023-03-17T09:58:05.893Z,8.79
2023-03-17T10:00:32.752Z,9.12
2023-03-17T10:02:59.921Z,9.10
2023-03-17T10:05:30.490Z,8.81
2023-03-17T10:08:10.882Z,8.87
2023-03-17T10:11:03.541Z,9.11
2023-03-17T10:13:43.277Z,9.25
2023-03-17T10:16:17.715Z,8.95
2023-03-17T10:18:48.302Z,9.30
2023-03-17T10:21:20.424Z,9.35
2023-03-17T10:23:46.866Z,9.97
2023-03-17T10:26:39.852Z,9.92
2023-03-17T10:29:13.840Z,10.39
2023-03-17T10:31:40.697Z,10.49
2023-03-17T10:34:29.733Z,11.43
2023-03-17T10:37:01.974Z,11.05
2023-03-17T10:39:32.520Z,11.52
2023-03-17T10:42:11.952Z,11.59
2023-03-17T10:44:51.763Z,11.49
2023-03-17T10:47:33.863Z,12.08
2023-03-17T10:50:23.337Z,12.30
2023-03-17T10:52:54.837Z,11.69
2023-03-17T10:55:24.145Z,11.43
2023-03-17T10:58:06.075Z,12.60
2023-03-17T11:00:36.330Z,12.12
2023-03-17T11:03:22.822Z,12.59
2023-03-17T11:06:00.797Z,13.01
2023-03-17T11:08:31.958Z,13.22
2023-03-17T11:10:58.434Z,13.40
2023-03-17T11:13:30.941Z,13.38
2023-03-17T11:16:27.344Z,13.68
2023-03-17T11:18:58.157Z,14.48
2023-03-17T11:21:32.036Z,15.24
2023-03-17T11:24:06.903Z,15.51
2023-03-17T11:26:58.080Z,14.53
2023-03-17T11:29:47.032Z,15.46
2023-03-17T11:32:39.504Z,15.72
2023-03-17T11:35:12.499Z,15.80
2023-03-17T11:38:04.339Z,15.50
2023-03-17T11:41:02.257Z,15.15
2023-03-17T11:43:45.413Z,15.73
2023-03-17T11:47:04.689Z,14.67
2023-03-17T11:49:37.562Z,15.81
2023-03-17T11:52:36.455Z,16.03
2023-03-17T11:55:24.521Z,16.92
2023-03-17T11:58:02.616Z,16.88
2023-03-17T12:00:36.869Z,16.12
2023-03-17T12:03:17.714Z,15.83
2023-03-17T12:05:48.576Z,17.24
2023-03-17T12:08:30.198Z,16.35
2023-03-17T12:11:02.126Z,18.40
2023-03-17T12:14:00.425Z,16.68
2023-03-17T12:16:43.806Z,17.42
2023-03-17T12:19:24.529Z,16.68
2023-03-17T12:21:57.409Z,16.67
2023-03-17T12:24:33.729Z,17.20
2023-03-17T12:27:11.769Z,18.24
2023-03-17T12:29:57.241Z,17.36
2023-03-17T12:32:39.483Z,16.53
2023-03-17T12:35:15.623Z,15.67
2023-03-17T12:37:42.558Z,16.43
2023-03-17T12:40:18.814Z,17.50
2023-03-17T12:43:30.704Z,16.25
2023-03-17T12:46:25.329Z,16.58
2023-03-17T12:49:29.001Z,16.44
2023-03-17T12:52:14.393Z,15.99
2023-03-17T12:54:46.364Z,16.46
2023-03-17T12:57:26.834Z,16.16
2023-03-17T13:00:07.659Z,16.59
2023-03-17T13:02:39.276Z,16.48
2023-03-17T13:05:09.247Z,16.79
2023-03-17T13:07:52.720Z,17.02
2023-03-17T13:10:39.877Z,16.60
2023-03-17T13:13:44.614Z,15.64
2023-03-17T13:16:33.004Z,15.97
2023-03-17T13:19:16.908Z,15.79
2023-03-17T13:22:09.697Z,15.96
2023-03-17T13:25:12.705Z,15.64
2023-03-17T13:27:39.146Z,15.70
2023-03-17T13:30:26.172Z,15.96
2023-03-17T13:33:16.379Z,16.02
2023-03-17T13:36:05.495Z,16.00
2023-03-17T13:38:35.490Z,15.37
2023-03-17T13:41:23.708Z,15.76
2023-03-17T13:44:05.127Z,15.82
2023-03-17T13:46:39.370Z,15.82
2023-03-17T13:49:29.934Z,16.14
2023-03-17T13:52:14.873Z,16.21
2023-03-17T13:54:47.863Z,16.36
2023-03-17T13:57:25.872Z,16.10
2023-03-17T14:00:22.637Z,15.73
2023-03-17T14:02:53.611Z,15.87
2023-03-17T14:05:30.073Z,15.89
2023-03-17T14:08:01.695Z,15.95
2023-03-17T14:10:34.572Z,15.81
2023-03-17T14:13:25.583Z,15.48
2023-03-17T14:16:17.099Z,15.69
2023-03-17T14:18:51.764Z,15.93
2023-03-17T14:21:34.876Z,16.05
2023-03-17T14:24:17.249Z,16.27
2023-03-17T14:26:43.949Z,16.32
2023-03-17T14:29:14.161Z,16.21
2023-03-17T14:31:40.766Z,15.95
2023-03-17T14:34:14.603Z,16.10
2023-03-17T14:36:41.837Z,15.93
2023-03-17T14:39:22.035Z,15.76
2023-03-17T14:41:58.068Z,15.79
2023-03-17T14:44:24.536Z,15.71
2023-03-17T14:46:51.453Z,15.56
2023-03-17T14:49:20.452Z,15.72
2023-03-17T14:51:57.292Z,15.52
2023-03-17T14:54:31.297Z,15.52
2023-03-17T14:57:07.964Z,15.50
2023-03-17T14:59:37.128Z,15.39
2023-03-17T15:02:23.333Z,15.63
2023-03-17T15:04:56.938Z,15.73
2023-03-17T15:07:39.735Z,15.70
2023-03-17T15:10:15.060Z,15.72
2023-03-17T15:12:42.379Z,15.73
2023-03-17T15:15:21.632Z,15.78
2023-03-17T15:17:51.814Z,15.73
2023-03-17T15:20:22.632Z,15.68
2023-03-17T15:23:05.780Z,15.54
2023-03-17T15:25:42.117Z,15.56
2023-03-17T15:28:13.362Z,15.49
2023-03-17T15:30:47.655Z,15.56
2023-03-17T15:33:43.777Z,15.46
2023-03-17T15:36:31.446Z,15.44
2023-03-17T15:38:59.081Z,15.36
2023-03-17T15:41:25.796Z,15.30
2023-03-17T15:43:52.272Z,15.26
2023-03-17T15:46:24.392Z,15.24
2023-03-17T15:48:51.364Z,15.33
2023-03-17T15:51:18.150Z,15.25
2023-03-17T15:53:44.710Z,15.21
2023-03-17T15:56:20.429Z,15.16
2023-03-17T15:58:52.378Z,15.12
2023-03-17T16:01:19.993Z,15.12
2023-03-17T16:03:48.056Z,14.97
2023-03-17T16:06:20.932Z,14.95
2023-03-17T16:08:48.282Z,14.93
2023-03-17T16:11:17.867Z,14.86
2023-03-17T16:13:45.874Z,14.80
2023-03-17T16:16:21.532Z,14.76
2023-03-17T16:18:51.091Z,14.59
2023-03-17T16:21:19.187Z,14.54
2023-03-17T16:23:47.148Z,14.47
2023-03-17T16:26:16.475Z,14.40
2023-03-17T16:28:45.925Z,14.33
2023-03-17T16:31:28.260Z,14.32
2023-03-17T16:33:55.130Z,14.23
2023-03-17T16:36:22.877Z,14.19
2023-03-17T16:38:49.999Z,14.17
2023-03-17T16:41:25.293Z,14.04
2023-03-17T16:43:57.677Z,13.89
2023-03-17T16:46:26.755Z,13.93
2023-03-17T16:48:53.376Z,13.83
2023-03-17T16:51:19.875Z,13.66
2023-03-17T16:53:46.602Z,13.58
2023-03-17T16:56:16.942Z,13.39
2023-03-17T16:58:44.209Z,13.27
2023-03-17T17:01:16.717Z,13.25
2023-03-17T17:03:43.757Z,13.12
2023-03-17T17:06:12.610Z,13.05
2023-03-17T17:08:39.086Z,12.90
2023-03-17T17:11:06.451Z,12.75
2023-03-17T17:13:33.001Z,12.68
2023-03-17T17:16:00.668Z,12.61
2023-03-17T17:18:27.660Z,12.41
2023-03-17T17:20:54.994Z,12.32
2023-03-17T17:23:23.618Z,12.20
2023-03-17T17:25:50.958Z,12.11
2023-03-17T17:28:19.832Z,11.96
2023-03-17T17:30:48.147Z,11.77
2023-03-17T17:33:16.384Z,11.83
2023-03-17T17:35:44.415Z,11.71
2023-03-17T17:38:29.463Z,11.55
2023-03-17T17:40:58.249Z,11.49
2023-03-17T17:43:25.548Z,11.40
2023-03-17T17:45:53.006Z,11.31
2023-03-17T17:48:22.723Z,11.17
2023-03-17T17:50:50.117Z,11.06
2023-03-17T17:53:18.085Z,10.98
2023-03-17T17:55:46.911Z,10.89
2023-03-17T17:58:19.806Z,10.77
2023-03-17T18:00:46.834Z,10.71
2023-03-17T18:03:13.336Z,10.59
2023-03-17T18:05:40.036Z,10.54
2023-03-17T18:08:06.780Z,10.49
2023-03-17T18:10:34.255Z,10.37
2023-03-17T18:13:01.053Z,10.31
2023-03-17T18:15:28.388Z,10.27
2023-03-17T18:17:56.075Z,10.24
2023-03-17T18:20:23.949Z,10.05
2023-03-17T18:22:51.529Z,10.04
2023-03-17T18:25:19.198Z,10.02
2023-03-17T18:27:47.309Z,9.88
2023-03-17T18:30:25.279Z,9.94
2023-03-17T18:32:59.479Z,9.90
2023-03-17T18:35:27.477Z,9.83
2023-03-17T18:37:56.507Z,9.73
2023-03-17T18:40:23.254Z,9.73
2023-03-17T18:42:49.918Z,9.66
2023-03-17T18:45:16.566Z,9.60
2023-03-17T18:47:43.371Z,9.60
2023-03-17T18:50:12.174Z,9.59
2023-03-17T18:52:41.156Z,9.49
2023-03-17T18:55:09.533Z,9.44
2023-03-17T18:57:36.829Z,9.39
2023-03-17T19:00:05.217Z,9.33
2023-03-17T19:02:31.762Z,9.26
2023-03-17T19:04:58.349Z,9.19
2023-03-17T19:07:24.978Z,9.13
2023-03-17T19:09:51.461Z,9.07
2023-03-17T19:12:18.633Z,9.08
2023-03-17T19:14:45.523Z,9.01
2023-03-17T19:17:11.990Z,8.94
2023-03-17T19:19:38.906Z,8.86
2023-03-17T19:22:06.299Z,8.81
2023-03-17T19:24:35.664Z,8.75
2023-03-17T19:27:02.153Z,8.66
2023-03-17T19:29:28.717Z,8.61
2023-03-17T19:31:55.312Z,8.53
2023-03-17T19:34:23.041Z,8.47
2023-03-17T19:36:49.544Z,8.41
2023-03-17T19:39:16.591Z,8.35
2023-03-17T19:41:43.491Z,8.28
2023-03-17T19:44:09.999Z,8.24
2023-03-17T19:46:37.129Z,8.18
2023-03-17T19:49:05.050Z,8.10
2023-03-17T19:51:33.169Z,8.05
2023-03-17T19:53:59.986Z,7.94
2023-03-17T19:56:27.898Z,7.92
2023-03-17T19:58:55.262Z,7.82
2023-03-17T20:01:24.901Z,7.74
2023-03-17T20:03:51.603Z,7.70
2023-03-17T20:06:18.087Z,7.64
2023-03-17T20:08:44.684Z,7.59
2023-03-17T20:11:12.666Z,7.49
2023-03-17T20:13:42.629Z,7.39
2023-03-17T20:16:09.744Z,7.43
2023-03-17T20:18:36.517Z,7.34
2023-03-17T20:21:05.986Z,7.28
2023-03-17T20:23:32.882Z,7.21
2023-03-17T20:25:59.564Z,7.17
2023-03-17T20:28:26.854Z,7.15
2023-03-17T20:31:01.727Z,7.08
2023-03-17T20:33:28.549Z,7.05
2023-03-17T20:35:55.066Z,6.99
2023-03-17T20:38:21.790Z,6.93
2023-03-17T20:40:48.355Z,6.87
2023-03-17T20:43:15.112Z,6.81
2023-03-17T20:45:41.736Z,6.80
2023-03-17T20:48:10.693Z,6.72
2023-03-17T20:50:41.340Z,6.63
2023-03-17T20:53:08.750Z,6.55
2023-03-17T20:55:36.471Z,6.57
2023-03-17T20:58:04.041Z,6.55
2023-03-17T21:00:31.983Z,6.52
2023-03-17T21:03:00.457Z,6.39
2023-03-17T21:05:27.905Z,6.34
2023-03-17T21:07:56.572Z,6.33
2023-03-17T21:10:23.054Z,6.27
2023-03-17T21:12:49.794Z,6.23
2023-03-17T21:15:16.783Z,6.20
2023-03-17T21:17:43.293Z,6.16
2023-03-17T21:20:12.380Z,6.14
2023-03-17T21:22:40.238Z,6.11
2023-03-17T21:25:08.831Z,6.06
2023-03-17T21:27:42.819Z,6.00
2023-03-17T21:30:13.456Z,5.96
2023-03-17T21:32:41.753Z,5.93
2023-03-17T21:35:08.958Z,5.80
2023-03-17T21:37:35.504Z,5.77
2023-03-17T21:40:02.171Z,5.78
2023-03-17T21:42:29.315Z,5.76
2023-03-17T21:44:55.788Z,5.55
2023-03-17T21:47:22.523Z,5.58
2023-03-17T21:49:48.982Z,5.60
2023-03-17T21:52:15.619Z,5.60
2023-03-17T21:54:42.254Z,5.60
2023-03-17T21:57:08.798Z,5.55
2023-03-17T21:59:35.972Z,5.57
2023-03-17T22:02:02.995Z,5.54
2023-03-17T22:04:29.960Z,5.49
2023-03-17T22:06:56.823Z,5.42
2023-03-17T22:09:23.341Z,5.37
2023-03-17T22:11:49.919Z,5.31
2023-03-17T22:14:20.133Z,5.29
2023-03-17T22:16:47.864Z,5.28
2023-03-17T22:19:14.743Z,5.12
2023-03-17T22:21:42.053Z,5.15
2023-03-17T22:24:09.233Z,5.18
2023-03-17T22:26:35.970Z,5.12
2023-03-17T22:29:02.464Z,5.02
2023-03-17T22:31:29.500Z,4.97
2023-03-17T22:33:59.453Z,4.86
2023-03-17T22:36:26.997Z,4.83
2023-03-17T22:38:54.121Z,4.73
2023-03-17T22:41:24.003Z,4.80
2023-03-17T22:43:51.416Z,4.72
2023-03-17T22:46:19.026Z,4.67
2023-03-17T22:48:46.825Z,4.67
2023-03-17T22:51:18.486Z,4.61
2023-03-17T22:53:45.881Z,4.53
2023-03-17T22:56:13.543Z,4.49
2023-03-17T22:58:40.650Z,4.48
2023-03-17T23:01:07.354Z,4.49
2023-03-17T23:03:34.601Z,4.47
2023-03-17T23:06:03.521Z,4.27
2023-03-17T23:08:32.205Z,4.41
2023-03-17T23:11:00.656Z,4.32
2023-03-17T23:13:27.708Z,4.40
2023-03-17T23:15:54.592Z,4.33
2023-03-17T23:18:21.107Z,4.33
2023-03-17T23:20:47.789Z,4.32
2023-03-17T23:23:14.758Z,4.19
2023-03-17T23:25:41.298Z,4.24
2023-03-17T23:28:08.404Z,4.21
2023-03-17T23:30:35.864Z,4.20
2023-03-17T23:33:05.713Z,4.15
2023-03-17T23:35:33.589Z,4.14
2023-03-17T23:38:00.281Z,4.13
2023-03-17T23:40:26.733Z,4.09
2023-03-17T23:42:55.103Z,4.02
2023-03-17T23:45:23.440Z,4.03
2023-03-17T23:47:52.110Z,3.89
2023-03-17T23:50:19.952Z,3.97
2023-03-17T23:52:47.256Z,3.97
2023-03-17T23:55:14.528Z,3.79
2023-03-17T23:57:41.582Z,3.85
